Observation data for Floydada on 09/13/2017      Previous  Date  Next       Current Mesonet Observations  Soil Data  Daily Summary Page  Observations in Plain Language
KFLS 130500Z 14006KT 18/10 A2997 RMK A01 T01760096  RH  060%=      5-min Rain = 0
KFLS 130505Z 14006KT 18/10 A2997 RMK A01 T01750095  RH  061%=      5-min Rain = 0
KFLS 130510Z 14006KT 17/09 A2997 RMK A01 T01730094  RH  061%=      5-min Rain = 0
KFLS 130515Z 14005KT 17/09 A2996 RMK A01 T01720094  RH  061%=      5-min Rain = 0
KFLS 130520Z 12005KT 17/09 A2996 RMK A01 T01720093  RH  061%=      5-min Rain = 0
KFLS 130525Z 13005KT 17/09 A2996 RMK A01 T01690093  RH  062%=      5-min Rain = 0
KFLS 130530Z 14005KT 17/09 A2996 RMK A01 T01690093  RH  062%=      5-min Rain = 0
KFLS 130535Z 15005KT 17/09 A2996 RMK A01 T01690093  RH  062%=      5-min Rain = 0
KFLS 130540Z 15005KT 17/09 A2996 RMK A01 T01690093  RH  062%=      5-min Rain = 0
KFLS 130545Z 15005KT 17/09 A2996 RMK A01 T01690093  RH  062%=      5-min Rain = 0
KFLS 130550Z 15005KT 17/09 A2996 RMK A01 T01700092  RH  061%=      5-min Rain = 0
KFLS 130555Z 15006KT 17/09 A2996 RMK A01 T01690091  RH  061%=      5-min Rain = 0
KFLS 130600Z 15005KT 17/09 A2995 RMK A01 T01720091  RH  060%=      5-min Rain = 0
KFLS 130605Z 15005KT 17/09 A2995 RMK A01 T01740090  RH  059%=      5-min Rain = 0
KFLS 130610Z 15005KT 18/09 A2995 RMK A01 T01750091  RH  059%=      5-min Rain = 0
KFLS 130615Z 16006KT 17/09 A2995 RMK A01 T01730091  RH  060%=      5-min Rain = 0
KFLS 130620Z 16006KT 17/09 A2995 RMK A01 T01690091  RH  061%=      5-min Rain = 0
KFLS 130625Z 16006KT 17/09 A2995 RMK A01 T01710090  RH  060%=      5-min Rain = 0
KFLS 130630Z 16006KT 17/09 A2995 RMK A01 T01710089  RH  059%=      5-min Rain = 0
KFLS 130635Z 15006KT 17/09 A2995 RMK A01 T01700090  RH  060%=      5-min Rain = 0
KFLS 130640Z 15006KT 17/09 A2994 RMK A01 T01710090  RH  060%=      5-min Rain = 0
KFLS 130645Z 14006KT 17/09 A2994 RMK A01 T01700090  RH  060%=      5-min Rain = 0
KFLS 130650Z 14005KT 17/09 A2994 RMK A01 T01690089  RH  060%=      5-min Rain = 0
KFLS 130655Z 14005KT 17/09 A2994 RMK A01 T01680089  RH  061%=      5-min Rain = 0
KFLS 130700Z 14005KT 17/09 A2994 RMK A01 T01680089  RH  060%=      5-min Rain = 0
KFLS 130705Z 14005KT 17/09 A2994 RMK A01 T01670088  RH  061%=      5-min Rain = 0
KFLS 130710Z 14005KT 16/09 A2994 RMK A01 T01640089  RH  062%=      5-min Rain = 0
KFLS 130715Z 14005KT 16/09 A2994 RMK A01 T01630089  RH  063%=      5-min Rain = 0
KFLS 130720Z 15005KT 16/09 A2994 RMK A01 T01610090  RH  063%=      5-min Rain = 0
KFLS 130725Z 16004KT 16/09 A2994 RMK A01 T01610089  RH  063%=      5-min Rain = 0
KFLS 130730Z 17005KT 16/09 A2994 RMK A01 T01610089  RH  063%=      5-min Rain = 0
KFLS 130735Z 18006KT 16/09 A2994 RMK A01 T01610090  RH  064%=      5-min Rain = 0
KFLS 130740Z 17006KT 16/09 A2994 RMK A01 T01600090  RH  064%=      5-min Rain = 0
KFLS 130745Z 16006KT 16/09 A2994 RMK A01 T01600089  RH  064%=      5-min Rain = 0
KFLS 130750Z 16006KT 16/09 A2994 RMK A01 T01640088  RH  062%=      5-min Rain = 0
KFLS 130755Z 16006KT 17/09 A2994 RMK A01 T01650088  RH  061%=      5-min Rain = 0
KFLS 130800Z 15006KT 17/09 A2994 RMK A01 T01650089  RH  062%=      5-min Rain = 0
KFLS 130805Z 16006KT 16/09 A2994 RMK A01 T01630089  RH  062%=      5-min Rain = 0
KFLS 130810Z 17006KT 16/09 A2994 RMK A01 T01640088  RH  062%=      5-min Rain = 0
KFLS 130815Z 15006KT 17/09 A2994 RMK A01 T01650087  RH  061%=      5-min Rain = 0
KFLS 130820Z 15007KT 17/09 A2993 RMK A01 T01660088  RH  061%=      5-min Rain = 0
KFLS 130825Z 16007KT 16/09 A2993 RMK A01 T01630088  RH  062%=      5-min Rain = 0
KFLS 130830Z 16006KT 16/09 A2994 RMK A01 T01630087  RH  062%=      5-min Rain = 0
KFLS 130835Z 15006KT 16/09 A2993 RMK A01 T01640087  RH  061%=      5-min Rain = 0
KFLS 130840Z 14007KT 16/09 A2993 RMK A01 T01640087  RH  061%=      5-min Rain = 0
KFLS 130845Z 16006KT 16/09 A2993 RMK A01 T01630087  RH  062%=      5-min Rain = 0
KFLS 130850Z 19005KT 16/09 A2994 RMK A01 T01590087  RH  063%=      5-min Rain = 0
KFLS 130855Z 17006KT 16/09 A2993 RMK A01 T01590086  RH  063%=      5-min Rain = 0
KFLS 130900Z 14007KT 16/09 A2993 RMK A01 T01610086  RH  062%=      5-min Rain = 0
KFLS 130905Z 15006KT 16/09 A2993 RMK A01 T01610086  RH  062%=      5-min Rain = 0
KFLS 130910Z 15006KT 16/09 A2993 RMK A01 T01570087  RH  064%=      5-min Rain = 0
KFLS 130915Z 15006KT 16/09 A2993 RMK A01 T01550087  RH  065%=      5-min Rain = 0
KFLS 130920Z 16006KT 15/09 A2993 RMK A01 T01530087  RH  066%=      5-min Rain = 0
KFLS 130925Z 15007KT 15/09 A2993 RMK A01 T01530086  RH  066%=      5-min Rain = 0
KFLS 130930Z 14007KT 15/09 A2993 RMK A01 T01540086  RH  065%=      5-min Rain = 0
KFLS 130935Z 14007KT 15/09 A2993 RMK A01 T01530087  RH  066%=      5-min Rain = 0
KFLS 130940Z 13007KT 15/09 A2992 RMK A01 T01530087  RH  066%=      5-min Rain = 0
KFLS 130945Z 14007KT 15/09 A2993 RMK A01 T01510088  RH  067%=      5-min Rain = 0
KFLS 130950Z 13007KT 15/09 A2993 RMK A01 T01480089  RH  068%=      5-min Rain = 0
KFLS 130955Z 13006KT 15/09 A2993 RMK A01 T01490088  RH  068%=      5-min Rain = 0
KFLS 131000Z 13006KT 15/09 A2992 RMK A01 T01480088  RH  068%=      5-min Rain = 0
KFLS 131005Z 13005KT 15/09 A2992 RMK A01 T01480087  RH  068%=      5-min Rain = 0
KFLS 131010Z 14006KT 15/09 A2992 RMK A01 T01480087  RH  068%=      5-min Rain = 0
KFLS 131015Z 13006KT 15/09 A2992 RMK A01 T01470087  RH  068%=      5-min Rain = 0
KFLS 131020Z 13007KT 15/09 A2992 RMK A01 T01450087  RH  069%=      5-min Rain = 0
KFLS 131025Z 12007KT 14/09 A2992 RMK A01 T01410087  RH  071%=      5-min Rain = 0
KFLS 131030Z 12007KT 14/09 A2992 RMK A01 T01370088  RH  074%=      5-min Rain = 0
KFLS 131035Z 12006KT 14/09 A2992 RMK A01 T01370089  RH  074%=      5-min Rain = 0
KFLS 131040Z 12007KT 14/09 A2991 RMK A01 T01350089  RH  075%=      5-min Rain = 0
KFLS 131045Z 12006KT 14/09 A2992 RMK A01 T01350089  RH  074%=      5-min Rain = 0
KFLS 131050Z 12006KT 14/09 A2991 RMK A01 T01370088  RH  073%=      5-min Rain = 0
KFLS 131055Z 12006KT 14/09 A2992 RMK A01 T01360088  RH  074%=      5-min Rain = 0
KFLS 131100Z 12006KT 14/09 A2991 RMK A01 T01360087  RH  074%=      5-min Rain = 0
KFLS 131105Z 12006KT 14/09 A2992 RMK A01 T01360087  RH  073%=      5-min Rain = 0
KFLS 131110Z 12005KT 14/09 A2992 RMK A01 T01360087  RH  074%=      5-min Rain = 0
KFLS 131115Z 14003KT 14/09 A2992 RMK A01 T01350087  RH  074%=      5-min Rain = 0
KFLS 131120Z 17003KT 13/09 A2992 RMK A01 T01340087  RH  074%=      5-min Rain = 0
KFLS 131125Z 17003KT 14/09 A2992 RMK A01 T01370087  RH  073%=      5-min Rain = 0
KFLS 131130Z 15002KT 14/09 A2992 RMK A01 T01380086  RH  072%=      5-min Rain = 0
KFLS 131135Z 12004KT 14/09 A2992 RMK A01 T01400086  RH  071%=      5-min Rain = 0
KFLS 131140Z 12006KT 14/09 A2992 RMK A01 T01400086  RH  071%=      5-min Rain = 0
KFLS 131145Z 13006KT 14/09 A2992 RMK A01 T01380086  RH  072%=      5-min Rain = 0
KFLS 131150Z 13006KT 14/09 A2992 RMK A01 T01390087  RH  072%=      5-min Rain = 0
KFLS 131155Z 13006KT 14/09 A2992 RMK A01 T01390087  RH  072%=      5-min Rain = 0
KFLS 131200Z 14006KT 14/09 A2992 RMK A01 T01380087  RH  072%=      5-min Rain = 0
KFLS 131205Z 14006KT 14/09 A2992 RMK A01 T01400087  RH  071%=      5-min Rain = 0
KFLS 131210Z 15006KT 14/09 A2992 RMK A01 T01420087  RH  071%=      5-min Rain = 0
KFLS 131215Z 15005KT 14/09 A2992 RMK A01 T01410088  RH  072%=      5-min Rain = 0
KFLS 131220Z 16005KT 14/09 A2992 RMK A01 T01410088  RH  072%=      5-min Rain = 0
KFLS 131225Z 16006KT 14/09 A2993 RMK A01 T01440088  RH  070%=      5-min Rain = 0
KFLS 131230Z 16006KT 15/09 A2993 RMK A01 T01490089  RH  068%=      5-min Rain = 0
KFLS 131235Z 15006KT 15/09 A2993 RMK A01 T01540089  RH  066%=      5-min Rain = 0
KFLS 131240Z 15007KT 16/09 A2993 RMK A01 T01570089  RH  065%=      5-min Rain = 0
KFLS 131245Z 16007KT 16/09 A2993 RMK A01 T01580090  RH  065%=      5-min Rain = 0
KFLS 131250Z 16007KT 16/09 A2993 RMK A01 T01620089  RH  063%=      5-min Rain = 0
KFLS 131255Z 16008KT 17/09 A2993 RMK A01 T01670087  RH  060%=      5-min Rain = 0
KFLS 131300Z 16007KT 17/09 A2993 RMK A01 T01710087  RH  058%=      5-min Rain = 0
KFLS 131305Z 17006KT 17/09 A2993 RMK A01 T01720087  RH  058%=      5-min Rain = 0
KFLS 131310Z 17006KT 17/09 A2994 RMK A01 T01740088  RH  058%=      5-min Rain = 0
KFLS 131315Z 17006KT 18/09 A2994 RMK A01 T01790087  RH  056%=      5-min Rain = 0
KFLS 131320Z 17006KT 18/09 A2994 RMK A01 T01840086  RH  054%=      5-min Rain = 0
KFLS 131325Z 16006KT 19/09 A2994 RMK A01 T01860086  RH  053%=      5-min Rain = 0
KFLS 131330Z 16006KT 19/09 A2994 RMK A01 T01900087  RH  052%=      5-min Rain = 0
KFLS 131335Z 15005KT 19/09 A2994 RMK A01 T01910089  RH  052%=      5-min Rain = 0
KFLS 131340Z 14005KT 19/09 A2994 RMK A01 T01910089  RH  052%=      5-min Rain = 0
KFLS 131345Z 14005KT 19/09 A2994 RMK A01 T01930090  RH  052%=      5-min Rain = 0
KFLS 131350Z 14004KT 19/09 A2994 RMK A01 T01940092  RH  052%=      5-min Rain = 0
KFLS 131355Z 14005KT 20/09 A2994 RMK A01 T01980093  RH  052%=      5-min Rain = 0
KFLS 131400Z 15005KT 20/09 A2994 RMK A01 T02020089  RH  049%=      5-min Rain = 0
KFLS 131405Z 15006KT 21/09 A2994 RMK A01 T02050086  RH  047%=      5-min Rain = 0
KFLS 131410Z 16005KT 21/09 A2994 RMK A01 T02060088  RH  047%=      5-min Rain = 0
KFLS 131415Z 16004KT 21/09 A2994 RMK A01 T02060089  RH  048%=      5-min Rain = 0
KFLS 131420Z 16004KT 21/09 A2994 RMK A01 T02050090  RH  048%=      5-min Rain = 0
KFLS 131425Z 16003KT 21/09 A2995 RMK A01 T02090094  RH  048%=      5-min Rain = 0
KFLS 131430Z 15004KT 22/09 A2995 RMK A01 T02160093  RH  046%=      5-min Rain = 0
KFLS 131435Z 14004KT 22/09 A2995 RMK A01 T02210090  RH  044%=      5-min Rain = 0
KFLS 131440Z 13005KT 23/09 A2995 RMK A01 T02260089  RH  042%=      5-min Rain = 0
KFLS 131445Z 15005KT 23/09 A2995 RMK A01 T02320086  RH  040%=      5-min Rain = 0
KFLS 131450Z 14006KT 24/08 A2995 RMK A01 T02360082  RH  038%=      5-min Rain = 0
KFLS 131455Z 14005KT 24/08 A2995 RMK A01 T02390080  RH  037%=      5-min Rain = 0
KFLS 131500Z 14007KT 24/08 A2995 RMK A01 T02430076  RH  035%=      5-min Rain = 0
KFLS 131505Z 16007KT 25/08 A2995 RMK A01 T02450076  RH  034%=      5-min Rain = 0
KFLS 131510Z 16006KT 25/08 A2995 RMK A01 T02500077  RH  034%=      5-min Rain = 0
KFLS 131515Z 16006KT 26/08 A2995 RMK A01 T02550078  RH  033%=      5-min Rain = 0
KFLS 131520Z 15007KT 26/08 A2995 RMK A01 T02590075  RH  032%=      5-min Rain = 0
KFLS 131525Z 15006KT 26/08 A2995 RMK A01 T02610077  RH  031%=      5-min Rain = 0
KFLS 131530Z 16008KT 27/08 A2995 RMK A01 T02650075  RH  030%=      5-min Rain = 0
KFLS 131535Z 17008KT 27/07 A2995 RMK A01 T02650074  RH  030%=      5-min Rain = 0
KFLS 131540Z 15008KT 27/08 A2995 RMK A01 T02680077  RH  030%=      5-min Rain = 0
KFLS 131545Z 16009KT 27/08 A2995 RMK A01 T02720077  RH  029%=      5-min Rain = 0
KFLS 131550Z 16010KT 27/08 A2995 RMK A01 T02730075  RH  029%=      5-min Rain = 0
KFLS 131555Z 16008G13KT 27/08 A2995 RMK A01 T02720076  RH  029%=      5-min Rain = 0
KFLS 131600Z 16007KT 27/08 A2995 RMK A01 T02740078  RH  029%=      5-min Rain = 0
KFLS 131605Z 15008KT 28/08 A2995 RMK A01 T02750078  RH  029%=      5-min Rain = 0
KFLS 131610Z 16008KT 28/08 A2994 RMK A01 T02780078  RH  029%=      5-min Rain = 0
KFLS 131615Z 16009KT 28/08 A2994 RMK A01 T02800077  RH  028%=      5-min Rain = 0
KFLS 131620Z 17009KT 28/08 A2994 RMK A01 T02810078  RH  028%=      5-min Rain = 0
KFLS 131625Z 16009KT 28/08 A2994 RMK A01 T02820078  RH  028%=      5-min Rain = 0
KFLS 131630Z 16008KT 29/08 A2994 RMK A01 T02850081  RH  028%=      5-min Rain = 0
KFLS 131635Z 16008KT 29/08 A2994 RMK A01 T02880081  RH  028%=      5-min Rain = 0
KFLS 131640Z 16008KT 29/08 A2994 RMK A01 T02890082  RH  028%=      5-min Rain = 0
KFLS 131645Z 17009KT 29/08 A2994 RMK A01 T02890081  RH  028%=      5-min Rain = 0
KFLS 131650Z 16008KT 29/08 A2994 RMK A01 T02920083  RH  027%=      5-min Rain = 0
KFLS 131655Z 18009KT 29/08 A2994 RMK A01 T02920084  RH  028%=      5-min Rain = 0
KFLS 131700Z 18008G14KT 29/08 A2994 RMK A01 T02940084  RH  027%=      5-min Rain = 0
KFLS 131705Z 16009G14KT 30/08 A2993 RMK A01 T02950083  RH  027%=      5-min Rain = 0
KFLS 131710Z 18011KT 29/08 A2993 RMK A01 T02940082  RH  027%=      5-min Rain = 0
KFLS 131715Z 17009G14KT 30/08 A2993 RMK A01 T02960083  RH  027%=      5-min Rain = 0
KFLS 131720Z 16010KT 30/08 A2993 RMK A01 T02980082  RH  026%=      5-min Rain = 0
KFLS 131725Z 17009KT 30/08 A2993 RMK A01 T02970082  RH  026%=      5-min Rain = 0
KFLS 131730Z 16009G14KT 30/08 A2993 RMK A01 T03030084  RH  026%=      5-min Rain = 0
KFLS 131735Z 16009G14KT 31/08 A2993 RMK A01 T03050082  RH  025%=      5-min Rain = 0
KFLS 131740Z 17011KT 30/08 A2992 RMK A01 T03040081  RH  025%=      5-min Rain = 0
KFLS 131745Z 18009KT 30/08 A2992 RMK A01 T03040082  RH  025%=      5-min Rain = 0
KFLS 131750Z 16008KT 30/08 A2992 RMK A01 T03040082  RH  025%=      5-min Rain = 0
KFLS 131755Z 17009G14KT 31/08 A2992 RMK A01 T03070084  RH  025%=      5-min Rain = 0
KFLS 131800Z 17010KT 31/08 A2992 RMK A01 T03080082  RH  025%=      5-min Rain = 0
KFLS 131805Z 17009KT 31/08 A2992 RMK A01 T03060081  RH  025%=      5-min Rain = 0
KFLS 131810Z 16010KT 31/08 A2992 RMK A01 T03060082  RH  025%=      5-min Rain = 0
KFLS 131815Z 16009KT 31/08 A2992 RMK A01 T03070082  RH  025%=      5-min Rain = 0
KFLS 131820Z 18008KT 31/08 A2992 RMK A01 T03080083  RH  025%=      5-min Rain = 0
KFLS 131825Z 18009G14KT 31/08 A2991 RMK A01 T03120083  RH  024%=      5-min Rain = 0
KFLS 131830Z 16009KT 32/08 A2991 RMK A01 T03160081  RH  024%=      5-min Rain = 0
KFLS 131835Z 17009KT 32/08 A2991 RMK A01 T03160082  RH  024%=      5-min Rain = 0
KFLS 131840Z 17009KT 32/08 A2991 RMK A01 T03150081  RH  024%=      5-min Rain = 0
KFLS 131845Z 18009KT 32/08 A299 RMK A01 T03150079  RH  023%=      5-min Rain = 0
KFLS 131850Z 18009KT 32/08 A299 RMK A01 T03150081  RH  024%=      5-min Rain = 0
KFLS 131855Z 15008KT 32/08 A299 RMK A01 T03170081  RH  024%=      5-min Rain = 0
KFLS 131900Z 16006G12KT 32/08 A299 RMK A01 T03160080  RH  023%=      5-min Rain = 0
KFLS 131905Z 17008KT 32/08 A299 RMK A01 T03190080  RH  023%=      5-min Rain = 0
KFLS 131910Z 16006G12KT 32/08 A2989 RMK A01 T03200081  RH  023%=      5-min Rain = 0
KFLS 131915Z 15010KT 32/08 A2989 RMK A01 T03240077  RH  022%=      5-min Rain = 0
KFLS 131920Z 17007G13KT 32/08 A2989 RMK A01 T03240076  RH  022%=      5-min Rain = 0
KFLS 131925Z 14007G13KT 32/08 A2989 RMK A01 T03200077  RH  022%=      5-min Rain = 0
KFLS 131930Z 17009KT 33/08 A2989 RMK A01 T03270076  RH  021%=      5-min Rain = 0
KFLS 131935Z 15008G13KT 33/07 A2988 RMK A01 T03280071  RH  021%=      5-min Rain = 0
KFLS 131940Z 14007G13KT 33/07 A2988 RMK A01 T03270069  RH  021%=      5-min Rain = 0
KFLS 131945Z 15009KT 33/07 A2988 RMK A01 T03300070  RH  020%=      5-min Rain = 0
KFLS 131950Z 17006G12KT 33/07 A2988 RMK A01 T03300071  RH  020%=      5-min Rain = 0
KFLS 131955Z 15007G12KT 33/07 A2988 RMK A01 T03310072  RH  020%=      5-min Rain = 0
KFLS 132000Z 14008G13KT 33/07 A2987 RMK A01 T03320069  RH  020%=      5-min Rain = 0
KFLS 132005Z 14006KT 33/07 A2987 RMK A01 T03310072  RH  020%=      5-min Rain = 0
KFLS 132010Z 14008KT 33/07 A2987 RMK A01 T03290071  RH  020%=      5-min Rain = 0
KFLS 132015Z 18007G12KT 33/07 A2987 RMK A01 T03320070  RH  020%=      5-min Rain = 0
KFLS 132020Z 19006KT 33/07 A2987 RMK A01 T03320066  RH  019%=      5-min Rain = 0
KFLS 132025Z 18006G11KT 33/07 A2986 RMK A01 T03320068  RH  020%=      5-min Rain = 0
KFLS 132030Z 16007KT 34/07 A2986 RMK A01 T03350071  RH  020%=      5-min Rain = 0
KFLS 132035Z 15004KT 34/07 A2986 RMK A01 T03350065  RH  019%=      5-min Rain = 0
KFLS 132040Z 13007KT 34/07 A2986 RMK A01 T03350068  RH  019%=      5-min Rain = 0
KFLS 132045Z 15008G13KT 34/07 A2986 RMK A01 T03350069  RH  020%=      5-min Rain = 0
KFLS 132050Z 15009KT 34/07 A2985 RMK A01 T03380066  RH  019%=      5-min Rain = 0
KFLS 132055Z 14009G14KT 34/07 A2985 RMK A01 T03350066  RH  019%=      5-min Rain = 0
KFLS 132100Z 15005G10KT 33/07 A2985 RMK A01 T03340065  RH  019%=      5-min Rain = 0
KFLS 132105Z 15006KT 34/07 A2985 RMK A01 T03380068  RH  019%=      5-min Rain = 0
KFLS 132110Z 14007G14KT 34/07 A2985 RMK A01 T03380066  RH  019%=      5-min Rain = 0
KFLS 132115Z 19010KT 34/06 A2985 RMK A01 T03380062  RH  018%=      5-min Rain = 0
KFLS 132120Z 19006KT 34/06 A2985 RMK A01 T03350062  RH  019%=      5-min Rain = 0
KFLS 132125Z 13004KT 34/06 A2984 RMK A01 T03380060  RH  018%=      5-min Rain = 0
KFLS 132130Z 20006G15KT 34/06 A2984 RMK A01 T03380062  RH  018%=      5-min Rain = 0
KFLS 132135Z 17010KT 34/06 A2984 RMK A01 T03380059  RH  018%=      5-min Rain = 0
KFLS 132140Z 20007G13KT 34/06 A2984 RMK A01 T03360060  RH  018%=      5-min Rain = 0
KFLS 132145Z 16006G12KT 34/06 A2984 RMK A01 T03360062  RH  018%=      5-min Rain = 0
KFLS 132150Z 16007KT 34/06 A2984 RMK A01 T03380063  RH  018%=      5-min Rain = 0
KFLS 132155Z 17007KT 34/06 A2984 RMK A01 T03400063  RH  018%=      5-min Rain = 0
KFLS 132200Z 14008KT 34/06 A2984 RMK A01 T03400060  RH  018%=      5-min Rain = 0
KFLS 132205Z 16007KT 34/06 A2984 RMK A01 T03370062  RH  018%=      5-min Rain = 0
KFLS 132210Z 19007KT 34/05 A2984 RMK A01 T03380054  RH  017%=      5-min Rain = 0
KFLS 132215Z 18008G13KT 34/06 A2984 RMK A01 T03360056  RH  018%=      5-min Rain = 0
KFLS 132220Z 16006G12KT 34/06 A2984 RMK A01 T03360059  RH  018%=      5-min Rain = 0
KFLS 132225Z 14006KT 34/06 A2984 RMK A01 T03360058  RH  018%=      5-min Rain = 0
KFLS 132230Z 17006G11KT 34/06 A2983 RMK A01 T03370057  RH  018%=      5-min Rain = 0
KFLS 132235Z 19007KT 34/05 A2983 RMK A01 T03350050  RH  017%=      5-min Rain = 0
KFLS 132240Z 21005KT 33/05 A2983 RMK A01 T03330050  RH  017%=      5-min Rain = 0
KFLS 132245Z 21003KT 33/05 A2983 RMK A01 T03340051  RH  017%=      5-min Rain = 0
KFLS 132250Z 19008G13KT 34/06 A2983 RMK A01 T03360055  RH  018%=      5-min Rain = 0
KFLS 132255Z 19008G13KT 33/05 A2983 RMK A01 T03340053  RH  018%=      5-min Rain = 0
KFLS 132300Z 18006G11KT 33/05 A2983 RMK A01 T03320052  RH  018%=      5-min Rain = 0
KFLS 132305Z 17005KT 33/05 A2983 RMK A01 T03320049  RH  017%=      5-min Rain = 0
KFLS 132310Z 16005KT 33/05 A2983 RMK A01 T03320052  RH  018%=      5-min Rain = 0
KFLS 132315Z 18009KT 33/05 A2983 RMK A01 T03310054  RH  018%=      5-min Rain = 0
KFLS 132320Z 18005KT 33/06 A2983 RMK A01 T03300056  RH  018%=      5-min Rain = 0
KFLS 132325Z 17006KT 33/05 A2983 RMK A01 T03300053  RH  018%=      5-min Rain = 0
KFLS 132330Z 17005KT 33/05 A2983 RMK A01 T03300052  RH  018%=      5-min Rain = 0
KFLS 132335Z 15007G13KT 33/05 A2983 RMK A01 T03290054  RH  018%=      5-min Rain = 0
KFLS 132340Z 17008KT 33/06 A2983 RMK A01 T03270056  RH  019%=      5-min Rain = 0
KFLS 132345Z 19007KT 32/06 A2983 RMK A01 T03240055  RH  019%=      5-min Rain = 0
KFLS 132350Z 19007KT 32/06 A2983 RMK A01 T03220056  RH  019%=      5-min Rain = 0
KFLS 132355Z 19005KT 32/06 A2983 RMK A01 T03200059  RH  020%=      5-min Rain = 0
KFLS 140000Z 17005KT 32/06 A2983 RMK A01 T03190059  RH  020%=      5-min Rain = 0
KFLS 140005Z 16005KT 32/06 A2983 RMK A01 T03190059  RH  020%=      5-min Rain = 0
KFLS 140010Z 15008KT 32/06 A2983 RMK A01 T03160063  RH  021%=      5-min Rain = 0
KFLS 140015Z 14007KT 31/07 A2983 RMK A01 T03120069  RH  022%=      5-min Rain = 0
KFLS 140020Z 13007KT 31/07 A2983 RMK A01 T03080069  RH  023%=      5-min Rain = 0
KFLS 140025Z 13006KT 30/07 A2983 RMK A01 T03040071  RH  024%=      5-min Rain = 0
KFLS 140030Z 12007KT 30/07 A2983 RMK A01 T02990071  RH  024%=      5-min Rain = 0
KFLS 140035Z 12007KT 29/08 A2983 RMK A01 T02910076  RH  026%=      5-min Rain = 0
KFLS 140040Z 12007KT 28/08 A2983 RMK A01 T02830080  RH  028%=      5-min Rain = 0
KFLS 140045Z 12007KT 28/08 A2983 RMK A01 T02750082  RH  030%=      5-min Rain = 0
KFLS 140050Z 13007KT 27/08 A2983 RMK A01 T02710081  RH  031%=      5-min Rain = 0
KFLS 140055Z 12007KT 27/08 A2983 RMK A01 T02670081  RH  031%=      5-min Rain = 0
KFLS 140100Z 12007KT 26/08 A2984 RMK A01 T02640082  RH  032%=      5-min Rain = 0
KFLS 140105Z 12007KT 26/08 A2984 RMK A01 T02600082  RH  033%=      5-min Rain = 0
KFLS 140110Z 11007KT 25/08 A2984 RMK A01 T02530084  RH  035%=      5-min Rain = 0
KFLS 140115Z 11008KT 25/09 A2984 RMK A01 T02460086  RH  036%=      5-min Rain = 0
KFLS 140120Z 10010KT 24/08 A2984 RMK A01 T02440083  RH  037%=      5-min Rain = 0
KFLS 140125Z 10009KT 25/08 A2984 RMK A01 T02520080  RH  034%=      5-min Rain = 0
KFLS 140130Z 11010KT 26/08 A2984 RMK A01 T02560080  RH  033%=      5-min Rain = 0
KFLS 140135Z 11009KT 26/08 A2985 RMK A01 T02570080  RH  033%=      5-min Rain = 0
KFLS 140140Z 11009KT 26/08 A2985 RMK A01 T02560080  RH  033%=      5-min Rain = 0
KFLS 140145Z 11009KT 26/08 A2985 RMK A01 T02550080  RH  033%=      5-min Rain = 0
KFLS 140150Z 11009KT 25/08 A2985 RMK A01 T02540080  RH  034%=      5-min Rain = 0
KFLS 140155Z 11009KT 25/08 A2985 RMK A01 T02530080  RH  034%=      5-min Rain = 0
KFLS 140200Z 11009KT 25/08 A2986 RMK A01 T02530079  RH  034%=      5-min Rain = 0
KFLS 140205Z 11009KT 25/08 A2986 RMK A01 T02520079  RH  034%=      5-min Rain = 0
KFLS 140210Z 11009KT 25/08 A2986 RMK A01 T02500079  RH  034%=      5-min Rain = 0
KFLS 140215Z 11008KT 25/08 A2986 RMK A01 T02480080  RH  035%=      5-min Rain = 0
KFLS 140220Z 12009KT 25/08 A2986 RMK A01 T02450081  RH  036%=      5-min Rain = 0
KFLS 140225Z 12009KT 24/08 A2986 RMK A01 T02430080  RH  036%=      5-min Rain = 0
KFLS 140230Z 11009KT 24/08 A2986 RMK A01 T02420079  RH  036%=      5-min Rain = 0
KFLS 140235Z 11009KT 24/08 A2987 RMK A01 T02420079  RH  036%=      5-min Rain = 0
KFLS 140240Z 12009KT 24/08 A2987 RMK A01 T02400078  RH  036%=      5-min Rain = 0
KFLS 140245Z 12009KT 24/08 A2987 RMK A01 T02390078  RH  036%=      5-min Rain = 0
KFLS 140250Z 12009KT 24/08 A2987 RMK A01 T02390077  RH  036%=      5-min Rain = 0
KFLS 140255Z 12009KT 24/08 A2987 RMK A01 T02390076  RH  036%=      5-min Rain = 0
KFLS 140300Z 12008KT 24/08 A2987 RMK A01 T02390076  RH  036%=      5-min Rain = 0
KFLS 140305Z 12008KT 24/08 A2987 RMK A01 T02360077  RH  037%=      5-min Rain = 0
KFLS 140310Z 12008KT 23/08 A2987 RMK A01 T02340078  RH  037%=      5-min Rain = 0
KFLS 140315Z 12009KT 23/08 A2987 RMK A01 T02330077  RH  037%=      5-min Rain = 0
KFLS 140320Z 12008KT 23/08 A2987 RMK A01 T02330077  RH  037%=      5-min Rain = 0
KFLS 140325Z 12007KT 23/08 A2988 RMK A01 T02320077  RH  038%=      5-min Rain = 0
KFLS 140330Z 12007KT 23/08 A2988 RMK A01 T02300078  RH  038%=      5-min Rain = 0
KFLS 140335Z 13007KT 23/08 A2988 RMK A01 T02270079  RH  039%=      5-min Rain = 0
KFLS 140340Z 13008KT 23/08 A2988 RMK A01 T02260079  RH  039%=      5-min Rain = 0
KFLS 140345Z 13008KT 23/08 A2988 RMK A01 T02260080  RH  040%=      5-min Rain = 0
KFLS 140350Z 13007KT 22/08 A2988 RMK A01 T02240080  RH  040%=      5-min Rain = 0
KFLS 140355Z 14007KT 22/08 A2988 RMK A01 T02190082  RH  042%=      5-min Rain = 0
KFLS 140400Z 14007KT 21/08 A2988 RMK A01 T02140082  RH  043%=      5-min Rain = 0
KFLS 140405Z 14007KT 21/08 A2988 RMK A01 T02100083  RH  045%=      5-min Rain = 0
KFLS 140410Z 13007KT 21/08 A2988 RMK A01 T02070084  RH  046%=      5-min Rain = 0
KFLS 140415Z 13008KT 21/09 A2988 RMK A01 T02050085  RH  047%=      5-min Rain = 0
KFLS 140420Z 13007KT 20/09 A2988 RMK A01 T02030085  RH  047%=      5-min Rain = 0
KFLS 140425Z 13007KT 20/09 A2989 RMK A01 T02030085  RH  047%=      5-min Rain = 0
KFLS 140430Z 14006KT 20/09 A2988 RMK A01 T01990086  RH  049%=      5-min Rain = 0
KFLS 140435Z 13007KT 20/09 A2988 RMK A01 T01970086  RH  049%=      5-min Rain = 0
KFLS 140440Z 14008KT 20/09 A2988 RMK A01 T01980085  RH  049%=      5-min Rain = 0
KFLS 140445Z 14008KT 20/09 A2988 RMK A01 T01970085  RH  049%=      5-min Rain = 0
KFLS 140450Z 14008KT 20/08 A2988 RMK A01 T01970084  RH  049%=      5-min Rain = 0
KFLS 140455Z 14008KT 20/08 A2988 RMK A01 T01990082  RH  048%=      5-min Rain = 0

Page generated in 0.0341 seconds.